createdAt,value
2022-12-13T00:00:26.061Z,0.00
2022-12-13T00:01:26.054Z,0.00
2022-12-13T00:02:26.098Z,0.00
2022-12-13T00:03:26.024Z,0.00
2022-12-13T00:04:26.080Z,0.00
2022-12-13T00:05:26.008Z,0.00
2022-12-13T00:06:25.998Z,0.00
2022-12-13T00:07:25.989Z,0.00
2022-12-13T00:08:26.052Z,0.00
2022-12-13T00:09:25.988Z,0.00
2022-12-13T00:10:25.954Z,0.00
2022-12-13T00:11:25.964Z,0.00
2022-12-13T00:12:25.943Z,0.00
2022-12-13T00:13:25.921Z,0.00
2022-12-13T00:14:25.924Z,0.00
2022-12-13T00:15:25.899Z,0.00
2022-12-13T00:16:25.960Z,0.00
2022-12-13T00:17:25.906Z,0.00
2022-12-13T00:18:25.862Z,0.00
2022-12-13T00:19:25.879Z,0.00
2022-12-13T00:20:25.839Z,0.00
2022-12-13T00:21:25.831Z,0.00
2022-12-13T00:22:25.821Z,0.00
2022-12-13T00:23:25.823Z,0.00
2022-12-13T00:24:25.815Z,0.00
2022-12-13T00:25:25.791Z,0.00
2022-12-13T00:26:25.794Z,0.00
2022-12-13T00:27:27.316Z,0.00
2022-12-13T00:28:25.762Z,0.00
2022-12-13T00:29:25.767Z,0.00
2022-12-13T00:30:25.825Z,0.00
2022-12-13T00:32:26.709Z,0.00
2022-12-13T00:33:25.708Z,0.00
2022-12-13T00:34:25.695Z,0.00
2022-12-13T00:35:25.701Z,0.00
2022-12-13T00:36:25.695Z,0.00
2022-12-13T00:37:26.184Z,0.00
2022-12-13T00:38:25.651Z,0.00
2022-12-13T00:39:25.633Z,0.00
2022-12-13T00:40:25.648Z,0.00
2022-12-13T00:41:25.635Z,0.00
2022-12-13T00:42:25.609Z,0.00
2022-12-13T00:43:25.629Z,0.00
2022-12-13T00:44:25.589Z,0.00
2022-12-13T00:45:25.588Z,0.00
2022-12-13T00:46:25.615Z,0.00
2022-12-13T00:47:25.550Z,0.00
2022-12-13T00:48:25.567Z,0.00
2022-12-13T00:49:25.534Z,0.00
2022-12-13T00:50:25.540Z,0.00
2022-12-13T00:51:25.505Z,0.00
2022-12-13T00:52:25.542Z,0.00
2022-12-13T00:53:25.483Z,0.00
2022-12-13T00:54:25.473Z,0.00
2022-12-13T00:55:25.461Z,0.00
2022-12-13T00:56:25.473Z,0.00
2022-12-13T00:57:25.460Z,0.00
2022-12-13T00:58:25.440Z,0.00
2022-12-13T00:59:25.454Z,0.00
2022-12-13T01:00:25.414Z,0.00
2022-12-13T01:01:25.502Z,0.00
2022-12-13T01:02:25.454Z,0.00
2022-12-13T01:03:25.557Z,0.00
2022-12-13T01:04:25.377Z,0.00
2022-12-13T01:06:02.216Z,0.00
2022-12-13T01:06:26.368Z,0.00
2022-12-13T01:07:25.348Z,0.00
2022-12-13T01:08:25.375Z,0.00
2022-12-13T01:09:25.330Z,0.00
2022-12-13T01:10:25.320Z,0.00
2022-12-13T01:11:25.306Z,0.00
2022-12-13T01:12:25.285Z,0.00
2022-12-13T01:13:25.291Z,0.00
2022-12-13T01:14:25.268Z,0.00
2022-12-13T01:15:25.264Z,0.00
2022-12-13T01:16:25.413Z,0.00
2022-12-13T01:17:25.226Z,0.00
2022-12-13T01:18:25.218Z,0.00
2022-12-13T01:19:25.204Z,0.00
2022-12-13T01:20:25.218Z,0.00
2022-12-13T01:21:25.203Z,0.00
2022-12-13T01:22:25.191Z,0.00
2022-12-13T01:23:25.162Z,0.00
2022-12-13T01:24:25.155Z,0.00
2022-12-13T01:25:25.140Z,0.00
2022-12-13T01:26:25.154Z,0.00
2022-12-13T01:27:25.118Z,0.00
2022-12-13T01:28:25.119Z,0.00
2022-12-13T01:29:26.438Z,0.00
2022-12-13T01:30:25.091Z,0.00
2022-12-13T01:31:25.217Z,0.00
2022-12-13T01:32:25.071Z,0.00
2022-12-13T01:33:25.054Z,0.00
2022-12-13T01:34:26.252Z,0.00
2022-12-13T01:35:25.057Z,0.00
2022-12-13T01:36:27.935Z,0.00
2022-12-13T01:37:26.183Z,0.00
2022-12-13T01:38:26.272Z,0.00
2022-12-13T01:39:26.329Z,0.00
2022-12-13T01:40:26.555Z,0.00
2022-12-13T01:41:27.270Z,0.00
2022-12-13T01:42:24.963Z,0.00
2022-12-13T01:43:24.947Z,0.00
2022-12-13T01:44:24.943Z,0.00
2022-12-13T01:45:24.944Z,0.00
2022-12-13T01:46:25.002Z,0.00
2022-12-13T01:47:24.924Z,0.00
2022-12-13T01:48:24.899Z,0.00
2022-12-13T01:49:24.884Z,0.00
2022-12-13T01:50:24.897Z,0.00
2022-12-13T01:51:24.863Z,0.00
2022-12-13T01:52:24.974Z,0.00
2022-12-13T01:53:24.840Z,0.00
2022-12-13T01:54:24.859Z,0.00
2022-12-13T01:55:25.821Z,0.00
2022-12-13T01:56:24.813Z,0.00
2022-12-13T01:57:24.797Z,0.00
2022-12-13T01:58:24.801Z,0.00
2022-12-13T01:59:24.797Z,0.00
2022-12-13T02:00:24.772Z,0.00
2022-12-13T02:01:24.820Z,0.00
2022-12-13T02:02:24.749Z,0.00
2022-12-13T02:03:24.752Z,0.00
2022-12-13T02:04:24.776Z,0.00
2022-12-13T02:05:24.731Z,0.00
2022-12-13T02:06:24.706Z,0.00
2022-12-13T02:07:24.712Z,0.00
2022-12-13T02:08:24.734Z,0.00
2022-12-13T02:09:24.672Z,0.00
2022-12-13T02:10:24.665Z,0.00
2022-12-13T02:11:24.661Z,0.00
2022-12-13T02:12:24.661Z,0.00
2022-12-13T02:13:25.626Z,0.00
2022-12-13T02:14:24.624Z,0.00
2022-12-13T02:15:24.629Z,0.00
2022-12-13T02:16:24.608Z,0.00
2022-12-13T02:17:24.696Z,0.00
2022-12-13T02:18:24.602Z,0.00
2022-12-13T02:19:24.583Z,0.00
2022-12-13T02:20:24.557Z,0.00
2022-12-13T02:21:24.540Z,0.00
2022-12-13T02:22:24.539Z,0.00
2022-12-13T02:23:24.569Z,0.00
2022-12-13T02:24:24.515Z,0.00
2022-12-13T02:25:29.020Z,0.00
2022-12-13T02:26:25.490Z,0.00
2022-12-13T02:27:30.820Z,0.00
2022-12-13T02:28:31.779Z,0.00
2022-12-13T02:29:30.759Z,0.00
2022-12-13T02:30:25.468Z,0.00
2022-12-13T02:31:24.526Z,0.00
2022-12-13T02:32:24.432Z,0.00
2022-12-13T02:33:24.413Z,0.00
2022-12-13T02:34:24.415Z,0.00
2022-12-13T02:35:24.433Z,0.00
2022-12-13T02:36:24.407Z,0.00
2022-12-13T02:37:24.371Z,0.00
2022-12-13T02:38:24.839Z,0.00
2022-12-13T02:39:30.258Z,0.00
2022-12-13T02:40:25.355Z,0.00
2022-12-13T02:41:24.325Z,0.00
2022-12-13T02:42:24.324Z,0.00
2022-12-13T02:43:24.328Z,0.00
2022-12-13T02:44:24.302Z,0.00
2022-12-13T02:45:24.723Z,0.00
2022-12-13T02:46:24.326Z,0.00
2022-12-13T02:47:24.265Z,0.00
2022-12-13T02:48:24.282Z,0.00
2022-12-13T02:49:24.243Z,0.00
2022-12-13T02:50:24.238Z,0.00
2022-12-13T02:51:24.243Z,0.00
2022-12-13T02:52:24.220Z,0.00
2022-12-13T02:53:24.199Z,0.00
2022-12-13T02:54:24.215Z,0.00
2022-12-13T02:55:28.060Z,0.00
2022-12-13T02:56:24.174Z,0.00
2022-12-13T02:57:24.179Z,0.00
2022-12-13T02:58:24.165Z,0.00
2022-12-13T02:59:24.138Z,0.00
2022-12-13T03:00:24.131Z,0.00
2022-12-13T03:01:29.183Z,0.00
2022-12-13T03:02:30.996Z,0.00
2022-12-13T03:03:25.235Z,0.00
2022-12-13T03:04:26.581Z,0.00
2022-12-13T03:05:24.093Z,0.00
2022-12-13T03:06:25.255Z,0.00
2022-12-13T03:07:25.123Z,0.00
2022-12-13T03:08:24.075Z,0.00
2022-12-13T03:09:24.055Z,0.00
2022-12-13T03:10:24.046Z,0.00
2022-12-13T03:11:24.042Z,0.00
2022-12-13T03:12:24.005Z,0.00
2022-12-13T03:13:24.008Z,0.00
2022-12-13T03:14:23.983Z,0.00
2022-12-13T03:15:23.967Z,0.00
2022-12-13T03:16:23.997Z,0.00
2022-12-13T03:17:23.959Z,0.00
2022-12-13T03:18:23.959Z,0.00
2022-12-13T03:19:23.945Z,0.00
2022-12-13T03:20:23.940Z,0.00
2022-12-13T03:21:23.902Z,0.00
2022-12-13T03:22:23.896Z,0.00
2022-12-13T03:23:23.901Z,0.00
2022-12-13T03:24:23.877Z,0.00
2022-12-13T03:25:31.356Z,0.00
2022-12-13T03:26:24.910Z,0.00
2022-12-13T03:27:23.845Z,0.00
2022-12-13T03:28:23.834Z,0.00
2022-12-13T03:29:24.918Z,0.00
2022-12-13T03:30:23.814Z,0.00
2022-12-13T03:31:23.837Z,0.00
2022-12-13T03:32:23.794Z,0.00
2022-12-13T03:33:23.797Z,0.00
2022-12-13T03:34:23.974Z,0.00
2022-12-13T03:35:24.409Z,0.00
2022-12-13T03:36:23.771Z,0.00
2022-12-13T03:37:23.733Z,0.00
2022-12-13T03:38:23.728Z,0.00
2022-12-13T03:39:23.735Z,0.00
2022-12-13T03:40:23.704Z,0.00
2022-12-13T03:41:23.705Z,0.00
2022-12-13T03:42:23.705Z,0.00
2022-12-13T03:43:23.849Z,0.00
2022-12-13T03:44:23.667Z,0.00
2022-12-13T03:45:24.647Z,0.00
2022-12-13T03:46:23.694Z,0.00
2022-12-13T03:47:23.634Z,0.00
2022-12-13T03:48:24.107Z,0.00
2022-12-13T03:49:23.606Z,0.00
2022-12-13T03:50:26.130Z,0.00
2022-12-13T03:51:23.706Z,0.00
2022-12-13T03:52:23.581Z,0.00
2022-12-13T03:53:32.464Z,0.00
2022-12-13T03:54:24.558Z,0.00
2022-12-13T03:55:23.630Z,0.00
2022-12-13T03:56:23.540Z,0.00
2022-12-13T03:57:23.540Z,0.00
2022-12-13T03:58:23.535Z,0.00
2022-12-13T03:59:23.515Z,0.00
2022-12-13T04:00:23.497Z,0.00
2022-12-13T04:01:23.566Z,0.00
2022-12-13T04:02:31.052Z,0.00
2022-12-13T04:03:24.509Z,0.00
2022-12-13T04:04:23.455Z,0.00
2022-12-13T04:05:23.448Z,0.00
2022-12-13T04:06:25.427Z,0.00
2022-12-13T04:07:24.414Z,0.00
2022-12-13T04:08:23.478Z,0.00
2022-12-13T04:09:23.396Z,0.00
2022-12-13T04:10:26.482Z,0.00
2022-12-13T04:11:23.421Z,0.00
2022-12-13T04:12:23.369Z,0.00
2022-12-13T04:13:23.352Z,0.00
2022-12-13T04:14:23.347Z,0.00
2022-12-13T04:15:23.334Z,0.00
2022-12-13T04:16:23.407Z,0.00
2022-12-13T04:17:23.343Z,0.00
2022-12-13T04:18:23.303Z,0.00
2022-12-13T04:19:24.326Z,0.00
2022-12-13T04:20:23.284Z,0.00
2022-12-13T04:21:23.290Z,0.00
2022-12-13T04:22:24.999Z,0.00
2022-12-13T04:23:23.267Z,0.00
2022-12-13T04:24:31.288Z,0.00
2022-12-13T04:25:24.227Z,0.00
2022-12-13T04:26:23.220Z,0.00
2022-12-13T04:27:23.230Z,0.00
2022-12-13T04:28:23.404Z,0.00
2022-12-13T04:29:23.218Z,0.00
2022-12-13T04:30:23.178Z,0.00
2022-12-13T04:31:23.406Z,0.00
2022-12-13T04:32:26.473Z,0.00
2022-12-13T04:33:23.144Z,0.00
2022-12-13T04:34:23.136Z,0.00
2022-12-13T04:35:23.136Z,0.00
2022-12-13T04:36:31.837Z,0.00
2022-12-13T04:37:24.097Z,0.00
2022-12-13T04:38:23.095Z,0.00
2022-12-13T04:39:23.129Z,0.00
2022-12-13T04:40:23.094Z,0.00
2022-12-13T04:41:23.105Z,0.00
2022-12-13T04:42:23.049Z,0.00
2022-12-13T04:43:23.053Z,0.00
2022-12-13T04:44:28.155Z,0.00
2022-12-13T04:45:24.203Z,0.00
2022-12-13T04:46:23.027Z,0.00
2022-12-13T04:47:25.552Z,0.00
2022-12-13T04:48:31.464Z,0.00
2022-12-13T04:49:23.971Z,0.00
2022-12-13T04:50:22.969Z,0.00
2022-12-13T04:51:22.980Z,0.00
2022-12-13T04:52:22.981Z,0.00
2022-12-13T04:53:22.947Z,0.00
2022-12-13T04:54:23.877Z,0.00
2022-12-13T04:55:22.915Z,0.00
2022-12-13T04:56:22.921Z,0.00
2022-12-13T04:57:22.913Z,0.00
2022-12-13T04:58:23.330Z,0.00
2022-12-13T04:59:22.904Z,0.00
2022-12-13T05:00:22.862Z,0.00
2022-12-13T05:01:22.947Z,0.00
2022-12-13T05:02:23.466Z,0.00
2022-12-13T05:03:22.876Z,0.00
2022-12-13T05:04:25.276Z,0.00
2022-12-13T05:05:23.828Z,0.00
2022-12-13T05:06:26.277Z,0.00
2022-12-13T05:07:22.811Z,0.00
2022-12-13T05:08:22.820Z,0.00
2022-12-13T05:09:22.769Z,0.00
2022-12-13T05:10:33.982Z,0.00
2022-12-13T05:11:23.752Z,0.00
2022-12-13T05:12:23.607Z,0.00
2022-12-13T05:13:22.726Z,0.00
2022-12-13T05:14:23.649Z,0.00
2022-12-13T05:15:22.731Z,0.00
2022-12-13T05:16:24.670Z,0.00
2022-12-13T05:17:22.723Z,0.00
2022-12-13T05:18:22.668Z,0.00
2022-12-13T05:19:30.546Z,0.00
2022-12-13T05:20:23.644Z,0.00
2022-12-13T05:21:22.641Z,0.00
2022-12-13T05:22:22.666Z,0.00
2022-12-13T05:23:22.958Z,0.00
2022-12-13T05:24:22.688Z,0.00
2022-12-13T05:25:22.601Z,0.00
2022-12-13T05:26:22.585Z,0.00
2022-12-13T05:27:25.017Z,0.00
2022-12-13T05:28:27.664Z,0.00
2022-12-13T05:29:23.578Z,0.00
2022-12-13T05:30:22.542Z,0.00
2022-12-13T05:31:24.042Z,0.00
2022-12-13T05:32:22.588Z,0.00
2022-12-13T05:33:22.520Z,0.00
2022-12-13T05:34:22.679Z,0.00
2022-12-13T05:35:23.748Z,0.00
2022-12-13T05:36:22.481Z,0.00
2022-12-13T05:37:22.475Z,0.00
2022-12-13T05:38:22.458Z,0.00
2022-12-13T05:39:28.915Z,0.00
2022-12-13T05:40:23.474Z,0.00
2022-12-13T05:41:22.430Z,0.00
2022-12-13T05:42:22.415Z,0.00
2022-12-13T05:43:22.565Z,0.00
2022-12-13T05:44:22.394Z,0.00
2022-12-13T05:45:22.403Z,0.00
2022-12-13T05:46:22.429Z,0.00
2022-12-13T05:47:22.397Z,0.00
2022-12-13T05:48:24.535Z,0.00
2022-12-13T05:49:22.344Z,0.00
2022-12-13T05:50:22.451Z,0.00
2022-12-13T05:51:22.398Z,0.00
2022-12-13T05:52:22.360Z,0.00
2022-12-13T05:53:30.717Z,0.00
2022-12-13T05:54:23.292Z,0.00
2022-12-13T05:55:22.282Z,0.00
2022-12-13T05:56:22.288Z,0.00
2022-12-13T05:57:22.265Z,0.00
2022-12-13T05:58:23.045Z,0.00
2022-12-13T05:59:22.243Z,0.00
2022-12-13T06:00:29.942Z,0.00
2022-12-13T06:01:23.219Z,0.00
2022-12-13T06:02:22.423Z,0.00
2022-12-13T06:03:22.345Z,0.00
2022-12-13T06:04:23.394Z,0.00
2022-12-13T06:05:22.199Z,0.00
2022-12-13T06:06:22.183Z,0.00
2022-12-13T06:07:22.160Z,0.00
2022-12-13T06:08:24.601Z,0.00
2022-12-13T06:09:22.138Z,0.00
2022-12-13T06:10:22.212Z,0.00
2022-12-13T06:11:32.026Z,0.00
2022-12-13T06:12:31.084Z,0.00
2022-12-13T06:13:31.912Z,0.00
2022-12-13T06:14:23.357Z,0.00
2022-12-13T06:15:22.943Z,0.00
2022-12-13T06:16:24.372Z,0.00
2022-12-13T06:17:22.082Z,0.00
2022-12-13T06:18:22.041Z,0.00
2022-12-13T06:19:22.055Z,0.00
2022-12-13T06:20:23.711Z,0.00
2022-12-13T06:21:22.013Z,0.00
2022-12-13T06:22:22.033Z,0.00
2022-12-13T06:23:21.987Z,0.00
2022-12-13T06:24:22.518Z,0.00
2022-12-13T06:25:30.460Z,0.00
2022-12-13T06:26:22.954Z,0.00
2022-12-13T06:27:21.968Z,0.00
2022-12-13T06:28:21.942Z,0.00
2022-12-13T06:29:24.348Z,0.00
2022-12-13T06:30:21.922Z,0.00
2022-12-13T06:31:21.917Z,0.00
2022-12-13T06:32:21.912Z,0.00
2022-12-13T06:33:23.404Z,0.00
2022-12-13T06:34:21.876Z,0.00
2022-12-13T06:35:28.122Z,0.00
2022-12-13T06:36:22.850Z,0.00
2022-12-13T06:37:21.844Z,0.00
2022-12-13T06:38:31.553Z,0.00
2022-12-13T06:39:22.872Z,0.00
2022-12-13T06:40:23.392Z,0.00
2022-12-13T06:41:21.803Z,0.00
2022-12-13T06:42:22.552Z,0.00
2022-12-13T06:43:21.781Z,0.00
2022-12-13T06:44:21.766Z,0.00
2022-12-13T06:45:21.759Z,0.00
2022-12-13T06:46:21.796Z,0.00
2022-12-13T06:47:31.995Z,0.00
2022-12-13T06:48:22.723Z,0.00
2022-12-13T06:49:21.717Z,0.00
2022-12-13T06:50:21.719Z,0.00
2022-12-13T06:51:22.933Z,0.00
2022-12-13T06:52:22.696Z,0.00
2022-12-13T06:53:21.699Z,0.00
2022-12-13T06:54:22.153Z,0.00
2022-12-13T06:55:23.979Z,0.00
2022-12-13T06:56:21.660Z,0.00
2022-12-13T06:57:21.632Z,0.00
2022-12-13T06:58:21.659Z,0.00
2022-12-13T06:59:21.643Z,0.00
2022-12-13T07:00:21.600Z,0.00
2022-12-13T07:01:24.454Z,0.00
2022-12-13T07:02:24.688Z,5.62
2022-12-13T07:03:21.728Z,5.62
2022-12-13T07:04:28.860Z,5.62
2022-12-13T07:05:22.570Z,5.62
2022-12-13T07:06:21.533Z,5.62
2022-12-13T07:07:21.569Z,5.62
2022-12-13T07:08:22.130Z,5.62
2022-12-13T07:09:21.510Z,5.62
2022-12-13T07:10:21.949Z,5.62
2022-12-13T07:11:21.493Z,5.62
2022-12-13T07:12:21.472Z,5.62
2022-12-13T07:13:21.485Z,5.62
2022-12-13T07:14:21.448Z,5.62
2022-12-13T07:15:21.446Z,11.25
2022-12-13T07:16:21.465Z,11.25
2022-12-13T07:17:32.546Z,11.25
2022-12-13T07:18:22.422Z,11.25
2022-12-13T07:19:24.080Z,11.25
2022-12-13T07:20:21.386Z,11.25
2022-12-13T07:21:22.487Z,11.25
2022-12-13T07:22:21.392Z,11.25
2022-12-13T07:23:24.463Z,11.25
2022-12-13T07:24:21.350Z,11.25
2022-12-13T07:25:28.637Z,16.88
2022-12-13T07:26:22.323Z,16.88
2022-12-13T07:27:21.347Z,16.88
2022-12-13T07:28:21.323Z,16.88
2022-12-13T07:29:22.101Z,16.88
2022-12-13T07:30:21.282Z,16.88
2022-12-13T07:31:21.346Z,16.88
2022-12-13T07:32:21.281Z,16.88
2022-12-13T07:33:22.407Z,16.88
2022-12-13T07:34:21.241Z,16.88
2022-12-13T07:35:21.244Z,16.88
2022-12-13T07:36:21.218Z,22.50
2022-12-13T07:37:30.655Z,22.50
2022-12-13T07:38:22.202Z,22.50
2022-12-13T07:39:21.211Z,22.50
2022-12-13T07:40:21.177Z,22.50
2022-12-13T07:41:23.489Z,22.50
2022-12-13T07:42:21.162Z,22.50
2022-12-13T07:43:21.930Z,22.50
2022-12-13T07:44:21.137Z,22.50
2022-12-13T07:45:21.134Z,22.50
2022-12-13T07:46:25.773Z,28.12
2022-12-13T07:47:22.112Z,28.12
2022-12-13T07:48:21.116Z,28.12
2022-12-13T07:49:21.088Z,28.12
2022-12-13T07:50:24.078Z,28.12
2022-12-13T07:51:21.075Z,28.12
2022-12-13T07:52:21.053Z,28.12
2022-12-13T07:53:21.519Z,28.12
2022-12-13T07:54:21.051Z,28.12
2022-12-13T07:55:23.122Z,28.12
2022-12-13T07:56:22.015Z,28.12
2022-12-13T07:57:21.023Z,28.12
2022-12-13T07:58:21.038Z,33.75
2022-12-13T07:59:28.888Z,33.75
2022-12-13T08:00:21.979Z,33.75
2022-12-13T08:01:22.099Z,33.75
2022-12-13T08:02:20.947Z,33.75
2022-12-13T08:03:25.505Z,33.75
2022-12-13T08:04:21.991Z,33.75
2022-12-13T08:05:25.813Z,33.75
2022-12-13T08:06:21.947Z,33.75
2022-12-13T08:07:20.904Z,33.75
2022-12-13T08:08:20.952Z,33.75
2022-12-13T08:09:20.904Z,33.75
2022-12-13T08:10:20.885Z,33.75
2022-12-13T08:11:20.885Z,39.38
2022-12-13T08:12:22.651Z,39.38
2022-12-13T08:13:21.281Z,39.38
2022-12-13T08:14:20.846Z,39.38
2022-12-13T08:15:20.813Z,39.38
2022-12-13T08:16:27.824Z,39.38
2022-12-13T08:17:21.790Z,39.38
2022-12-13T08:18:20.812Z,39.38
2022-12-13T08:19:20.835Z,39.38
2022-12-13T08:20:21.880Z,39.38
2022-12-13T08:22:24.184Z,39.38
2022-12-13T08:23:20.974Z,39.38
2022-12-13T08:24:20.720Z,39.38
2022-12-13T08:25:20.709Z,45.00
2022-12-13T08:26:20.729Z,45.00
2022-12-13T08:27:20.710Z,45.00
2022-12-13T08:28:20.673Z,45.00
2022-12-13T08:29:22.307Z,45.00
2022-12-13T08:30:23.119Z,45.00
2022-12-13T08:31:20.678Z,45.00
2022-12-13T08:32:20.650Z,45.00
2022-12-13T08:33:20.926Z,45.00
2022-12-13T08:34:20.637Z,45.00
2022-12-13T08:35:20.648Z,45.00
2022-12-13T08:36:20.607Z,45.00
2022-12-13T08:37:20.672Z,45.00
2022-12-13T08:38:22.617Z,45.00
2022-12-13T08:39:20.573Z,45.00
2022-12-13T08:40:20.545Z,45.00
2022-12-13T08:41:20.566Z,45.00
2022-12-13T08:42:20.653Z,45.00
2022-12-13T08:43:24.958Z,45.00
2022-12-13T08:44:20.510Z,50.62
2022-12-13T08:45:20.497Z,50.62
2022-12-13T08:46:20.537Z,50.62
2022-12-13T08:47:24.845Z,50.62
2022-12-13T08:48:21.933Z,50.62
2022-12-13T08:49:20.531Z,50.62
2022-12-13T08:50:20.450Z,50.62
2022-12-13T08:51:25.723Z,50.62
2022-12-13T08:52:21.427Z,50.62
2022-12-13T08:53:28.880Z,50.62
2022-12-13T08:54:31.670Z,50.62
2022-12-13T08:55:31.536Z,50.62
2022-12-13T08:56:21.378Z,50.62
2022-12-13T08:57:20.392Z,50.62
2022-12-13T08:58:20.361Z,50.62
2022-12-13T08:59:20.352Z,50.62
2022-12-13T09:00:20.363Z,50.62
2022-12-13T09:01:20.428Z,50.62
2022-12-13T09:02:20.349Z,50.62
2022-12-13T09:03:20.723Z,50.62
2022-12-13T09:04:31.496Z,50.62
2022-12-13T09:05:34.022Z,50.62
2022-12-13T09:06:21.290Z,50.62
2022-12-13T09:07:20.261Z,56.25
2022-12-13T09:08:24.556Z,56.25
2022-12-13T09:09:21.243Z,56.25
2022-12-13T09:10:26.850Z,56.25
2022-12-13T09:11:35.003Z,56.25
2022-12-13T09:12:30.416Z,56.25
2022-12-13T09:13:32.545Z,56.25
2022-12-13T09:14:23.514Z,56.25
2022-12-13T09:15:22.261Z,56.25
2022-12-13T09:16:23.688Z,56.25
2022-12-13T09:17:24.745Z,56.25
2022-12-13T09:18:24.222Z,56.25
2022-12-13T09:19:25.383Z,56.25
2022-12-13T09:20:29.413Z,56.25
2022-12-13T09:21:22.062Z,56.25
2022-12-13T09:22:33.391Z,56.25
2022-12-13T09:23:24.072Z,56.25
2022-12-13T09:24:24.498Z,56.25
2022-12-13T09:25:24.295Z,56.25
2022-12-13T09:26:25.179Z,56.25
2022-12-13T09:27:27.560Z,56.25
2022-12-13T09:28:21.064Z,56.25
2022-12-13T09:29:20.028Z,56.25
2022-12-13T09:30:20.023Z,56.25
2022-12-13T09:31:20.134Z,56.25
2022-12-13T09:32:19.999Z,56.25
2022-12-13T09:33:30.680Z,56.25
2022-12-13T09:34:21.000Z,61.88
2022-12-13T09:35:19.988Z,61.88
2022-12-13T09:36:19.980Z,61.88
2022-12-13T09:37:23.341Z,61.88
2022-12-13T09:38:22.514Z,61.88
2022-12-13T09:39:19.929Z,61.88
2022-12-13T09:40:26.002Z,61.88
2022-12-13T09:41:20.899Z,61.88
2022-12-13T09:42:23.619Z,61.88
2022-12-13T09:43:21.931Z,61.88
2022-12-13T09:44:32.293Z,61.88
2022-12-13T09:45:22.202Z,61.88
2022-12-13T09:46:22.927Z,61.88
2022-12-13T09:47:22.987Z,61.88
2022-12-13T09:48:22.314Z,61.88
2022-12-13T09:49:23.178Z,61.88
2022-12-13T09:50:19.937Z,61.88
2022-12-13T09:51:27.345Z,61.88
2022-12-13T09:52:22.026Z,61.88
2022-12-13T09:53:33.979Z,61.88
2022-12-13T09:54:20.773Z,61.88
2022-12-13T09:55:19.749Z,61.88
2022-12-13T09:56:19.771Z,61.88
2022-12-13T09:57:32.046Z,61.88
2022-12-13T09:58:21.211Z,61.88
2022-12-13T09:59:19.711Z,61.88
2022-12-13T10:00:19.700Z,61.88
2022-12-13T10:01:23.524Z,61.88
2022-12-13T10:02:19.833Z,61.88
2022-12-13T10:03:19.854Z,61.88
2022-12-13T10:04:19.665Z,61.88
2022-12-13T10:05:22.734Z,61.88
2022-12-13T10:06:22.939Z,61.88
2022-12-13T10:07:19.618Z,61.88
2022-12-13T10:08:19.682Z,61.88
2022-12-13T10:09:19.617Z,61.88
2022-12-13T10:10:19.756Z,61.88
2022-12-13T10:11:19.588Z,61.88
2022-12-13T10:12:19.568Z,61.88
2022-12-13T10:13:19.748Z,61.88
2022-12-13T10:14:19.549Z,61.88
2022-12-13T10:15:22.215Z,61.88
2022-12-13T10:16:23.691Z,61.88
2022-12-13T10:17:19.532Z,67.50
2022-12-13T10:18:19.510Z,67.50
2022-12-13T10:19:28.749Z,67.50
2022-12-13T10:20:20.513Z,67.50
2022-12-13T10:21:19.470Z,67.50
2022-12-13T10:22:19.466Z,67.50
2022-12-13T10:23:53.147Z,67.50
2022-12-13T10:24:28.732Z,67.50
2022-12-13T10:25:20.454Z,67.50
2022-12-13T10:26:23.919Z,67.50
2022-12-13T10:27:20.402Z,67.50
2022-12-13T10:28:19.509Z,67.50
2022-12-13T10:29:19.386Z,67.50
2022-12-13T10:30:23.141Z,73.12
2022-12-13T10:31:20.496Z,73.12
2022-12-13T10:32:19.360Z,78.75
2022-12-13T10:33:24.424Z,78.75
2022-12-13T10:34:20.354Z,73.12
2022-12-13T10:35:19.322Z,67.50
2022-12-13T10:36:24.951Z,67.50
2022-12-13T10:37:20.296Z,67.50
2022-12-13T10:38:19.290Z,67.50
2022-12-13T10:39:19.296Z,67.50
2022-12-13T10:40:32.086Z,67.50
2022-12-13T10:41:20.253Z,67.50
2022-12-13T10:42:22.922Z,67.50
2022-12-13T10:43:19.233Z,67.50
2022-12-13T10:44:19.254Z,67.50
2022-12-13T10:45:23.433Z,67.50
2022-12-13T10:46:25.280Z,67.50
2022-12-13T10:47:20.190Z,67.50
2022-12-13T10:48:19.197Z,67.50
2022-12-13T10:49:19.166Z,73.12
2022-12-13T10:50:19.183Z,73.12
2022-12-13T10:51:19.148Z,73.12
2022-12-13T10:52:19.139Z,73.12
2022-12-13T10:53:22.821Z,78.75
2022-12-13T10:54:19.144Z,78.75
2022-12-13T10:55:23.003Z,78.75
2022-12-13T10:56:23.726Z,78.75
2022-12-13T10:57:19.103Z,73.12
2022-12-13T10:58:19.078Z,73.12
2022-12-13T10:59:19.083Z,73.12
2022-12-13T11:00:19.067Z,73.12
2022-12-13T11:01:19.116Z,78.75
2022-12-13T11:02:19.051Z,78.75
2022-12-13T11:03:19.021Z,78.75
2022-12-13T11:04:23.839Z,78.75
2022-12-13T11:05:23.132Z,78.75
2022-12-13T11:06:18.997Z,73.12
2022-12-13T11:07:18.995Z,78.75
2022-12-13T11:08:18.968Z,78.75
2022-12-13T11:09:23.385Z,78.75
2022-12-13T11:10:23.651Z,78.75
2022-12-13T11:11:19.928Z,78.75
2022-12-13T11:12:18.969Z,84.38
2022-12-13T11:13:18.910Z,84.38
2022-12-13T11:14:18.902Z,84.38
2022-12-13T11:15:23.131Z,84.38
2022-12-13T11:16:18.966Z,84.38
2022-12-13T11:17:18.865Z,84.38
2022-12-13T11:18:18.865Z,84.38
2022-12-13T11:19:18.865Z,84.38
2022-12-13T11:20:18.834Z,84.38
2022-12-13T11:21:18.841Z,90.00
2022-12-13T11:22:18.834Z,90.00
2022-12-13T11:23:18.799Z,90.00
2022-12-13T11:24:22.818Z,90.00
2022-12-13T11:25:18.800Z,90.00
2022-12-13T11:26:24.194Z,90.00
2022-12-13T11:27:19.756Z,90.00
2022-12-13T11:28:25.958Z,90.00
2022-12-13T11:29:19.732Z,90.00
2022-12-13T11:30:18.765Z,90.00
2022-12-13T11:31:18.829Z,90.00
2022-12-13T11:32:22.603Z,90.00
2022-12-13T11:33:18.691Z,95.62
2022-12-13T11:34:18.688Z,95.62
2022-12-13T11:35:18.691Z,95.62
2022-12-13T11:36:18.698Z,95.62
2022-12-13T11:37:18.647Z,95.62
2022-12-13T11:38:18.643Z,95.62
2022-12-13T11:39:18.648Z,95.62
2022-12-13T11:40:18.619Z,95.62
2022-12-13T11:41:31.317Z,95.62
2022-12-13T11:42:19.617Z,95.62
2022-12-13T11:43:18.581Z,95.62
2022-12-13T11:44:18.591Z,95.62
2022-12-13T11:45:23.020Z,101.25
2022-12-13T11:46:18.692Z,101.25
2022-12-13T11:47:18.543Z,101.25
2022-12-13T11:48:18.556Z,101.25
2022-12-13T11:49:18.531Z,101.25
2022-12-13T11:50:32.952Z,101.25
2022-12-13T11:51:19.513Z,101.25
2022-12-13T11:52:18.490Z,101.25
2022-12-13T11:53:18.473Z,101.25
2022-12-13T11:54:23.881Z,101.25
2022-12-13T11:55:19.482Z,101.25
2022-12-13T11:56:18.467Z,101.25
2022-12-13T11:57:18.428Z,101.25
2022-12-13T11:58:32.506Z,106.88
2022-12-13T11:59:26.319Z,106.88
2022-12-13T12:00:33.671Z,106.88
2022-12-13T12:01:19.383Z,106.88
2022-12-13T12:02:18.515Z,106.88
2022-12-13T12:03:18.429Z,106.88
2022-12-13T12:04:18.360Z,106.88
2022-12-13T12:05:18.365Z,106.88
2022-12-13T12:06:18.368Z,106.88
2022-12-13T12:07:32.289Z,106.88
2022-12-13T12:08:32.339Z,106.88
2022-12-13T12:09:19.298Z,106.88
2022-12-13T12:10:18.315Z,106.88
2022-12-13T12:11:18.307Z,106.88
2022-12-13T12:12:21.946Z,106.88
2022-12-13T12:13:18.263Z,106.88
2022-12-13T12:14:18.247Z,101.25
2022-12-13T12:15:18.256Z,101.25
2022-12-13T12:16:19.308Z,101.25
2022-12-13T12:17:18.210Z,101.25
2022-12-13T12:18:18.247Z,106.88
2022-12-13T12:19:18.215Z,106.88
2022-12-13T12:20:23.349Z,106.88
2022-12-13T12:21:19.165Z,106.88
2022-12-13T12:22:18.191Z,106.88
2022-12-13T12:23:18.146Z,106.88
2022-12-13T12:24:18.142Z,106.88
2022-12-13T12:25:18.126Z,106.88
2022-12-13T12:26:18.138Z,106.88
2022-12-13T12:27:22.695Z,106.88
2022-12-13T12:28:18.095Z,106.88
2022-12-13T12:29:18.076Z,106.88
2022-12-13T12:30:23.449Z,106.88
2022-12-13T12:31:19.185Z,106.88
2022-12-13T12:32:18.067Z,101.25
2022-12-13T12:33:18.038Z,101.25
2022-12-13T12:34:18.027Z,101.25
2022-12-13T12:35:19.012Z,101.25
2022-12-13T12:36:18.005Z,101.25
2022-12-13T12:37:18.041Z,101.25
2022-12-13T12:38:17.986Z,101.25
2022-12-13T12:39:17.967Z,101.25
2022-12-13T12:40:17.962Z,101.25
2022-12-13T12:41:18.087Z,101.25
2022-12-13T12:42:17.989Z,95.62
2022-12-13T12:43:17.937Z,90.00
2022-12-13T12:44:17.921Z,84.38
2022-12-13T12:45:54.512Z,78.75
2022-12-13T12:46:18.930Z,78.75
2022-12-13T12:49:18.973Z,73.12
2022-12-13T12:50:17.853Z,73.12
2022-12-13T12:51:17.837Z,73.12
2022-12-13T12:52:17.827Z,67.50
2022-12-13T12:53:17.815Z,67.50
2022-12-13T12:54:17.828Z,67.50
2022-12-13T12:55:17.799Z,67.50
2022-12-13T12:56:17.787Z,67.50
2022-12-13T12:57:17.769Z,67.50
2022-12-13T12:58:17.783Z,67.50
2022-12-13T12:59:17.755Z,67.50
2022-12-13T13:00:17.742Z,67.50
2022-12-13T13:01:17.817Z,61.88
2022-12-13T13:02:17.897Z,61.88
2022-12-13T13:03:22.583Z,61.88
2022-12-13T13:04:22.621Z,61.88
2022-12-13T13:05:17.680Z,61.88
2022-12-13T13:06:17.680Z,61.88
2022-12-13T13:07:23.381Z,61.88
2022-12-13T13:08:18.662Z,61.88